Dauntless Aviation
Airports North America United States New Mexico
N02

RED RIVER HELIPORT

RED RIVER, NM, USA

Airport Info
Suggest Updated Information for this Airport

Location

Latitude / Longitude: 36°42'35"N / 105°25'8"W
  36°42.5877'N / 105°25.1353'W
  36.7098 / -105.4189
Elevation: 8617.0 ft. (estimated)
Variation: 10E (1985)
From city: 00 miles W of RED RIVER, NM

Operations

Facility use: Open to the public
Sectional chart: DENVER
Control tower: no
Boundary ARTCC: ALBUQUERQUE
Responsible ARTCC: ALBUQUERQUE
FSS: ALBUQUERQUE [1-800-WX-BRIEF]
NOTAMs facility: ABQ (NOTAM-D service available)
Lights: SEE RMK
Beacon: CLEAR-GREEN-YELLOW (HELIPORT)

Communications

UNICOM: 122.800
CTAF: 122.800

Nearby radio navigation aids

VOR radial/distance VOR name Freq Var
TAS 75oT/24.2 TAOS VORTAC 117.60 13E
CIM 297oT/29.4 CIMARRON VORTAC 116.40 13E
 
NDB name Hdg/Dist Freq Var ID
SKI 39oT/19.6 414 11E SKX

Services

Runway Information

Helipad H1

Dimensions: 55 x 55 ft.
Surface: PORTLAND CEMENT CONCRETE,NO SPECIAL SURFACE TREATMENT
Edge lights: PERI
Latitude: 36-42-35.2600N
Longitude: 105-25-08.1200W
Elevation: 8617.0 ft. ft.
 

Operational Statistics

Annual operations: 21
Itinerant: 6
Military: 15

Additional Remarks

  • GATE CODE FOR PEDESTRIAN ACCESS HELIPORT - C 8617X.
  • VEHICLE GATE LOCKED, ACCESS BY CALLING EMERGENCY DISPATCH AT 575-754-6166.
  • FOR CD CTC ALBUQUERQUE ARTCC AT 505-856-4861.

Instrument Procedures

No published instrument procedures available
Topographic chart at:
Satellite photo at:
Airport distance calculator
From:
Weather Reports

METAR

KAXX
18.8nm SE
KAXX 251255Z AUTO 17005KT 10SM CLR M08/M10 A3012 RMK AO2 T10761101
KSKX
19.6nm S
KSKX 251256Z AUTO 01004KT 10SM CLR M07/M08 A3016 RMK AO2 SLP244 T10671078 FZRANO

TAF

Safelog

 

Dauntless Aviation

© 2007-2020 Dauntless Aviation, all rights reserved
Information provided via PilotNav comes from a variety of official and unofficial data sources. As errors are possible, do not use PilotNav for primary flight planning purposes. Verify any information that you receive via PilotNav with current and canonical charts and other official documents. The material in this database is subject to database copyrights held by Dauntless Aviation and may not be copied without the express permission of Dauntless Aviation - licenses for use of part of all of this data are available for purchase; enquire via the Dauntless Aviation helpdesk. A number of mechanisms and markers exist in the database to protect against and identify infringement / copyright. Automated queries against this website are strictly prohibited, and all activity is logged and analyzed.